createdAt,value
2023-02-18T00:00:10.180Z,100935.66
2023-02-18T00:03:12.211Z,100934.13
2023-02-18T00:06:35.489Z,100949.34
2023-02-18T00:09:39.129Z,100948.91
2023-02-18T00:12:42.869Z,100947.56
2023-02-18T00:15:47.266Z,100955.66
2023-02-18T00:18:49.730Z,100954.91
2023-02-18T00:21:51.943Z,100962.41
2023-02-18T00:24:54.028Z,100961.72
2023-02-18T00:27:56.078Z,100968.97
2023-02-18T00:30:59.031Z,100952.75
2023-02-18T00:34:01.444Z,100960.78
2023-02-18T00:37:04.225Z,100959.94
2023-02-18T00:40:07.106Z,100950.69
2023-02-18T00:43:10.759Z,100936.66
2023-02-18T00:46:13.364Z,100938.72
2023-02-18T00:49:16.206Z,100938.19
2023-02-18T00:52:18.234Z,100933.44
2023-02-18T00:55:20.279Z,100913.66
2023-02-18T00:58:22.277Z,100914.28
2023-02-18T01:01:24.660Z,100915.50
2023-02-18T01:04:26.763Z,100901.50
2023-02-18T01:07:30.565Z,100896.53
2023-02-18T01:10:33.043Z,100891.63
2023-02-18T01:13:36.058Z,100897.72
2023-02-18T01:16:38.194Z,100894.78
2023-02-18T01:19:44.031Z,100878.91
2023-02-18T01:22:47.866Z,100862.75
2023-02-18T01:25:50.177Z,100869.41
2023-02-18T01:28:52.229Z,100860.78
2023-02-18T01:31:55.686Z,100847.66
2023-02-18T01:34:57.795Z,100835.78
2023-02-18T01:38:02.921Z,100854.63
2023-02-18T01:41:05.470Z,100814.16
2023-02-18T01:44:20.572Z,100836.69
2023-02-18T01:47:23.721Z,100817.44
2023-02-18T01:50:28.138Z,100814.63
2023-02-18T01:54:02.060Z,100816.88
2023-02-18T01:57:08.087Z,100802.97
2023-02-18T02:00:17.330Z,100803.56
2023-02-18T02:03:21.906Z,100809.19
2023-02-18T02:06:25.544Z,100814.72
2023-02-18T02:09:31.238Z,100812.78
2023-02-18T02:12:36.021Z,100816.91
2023-02-18T02:16:01.260Z,100808.97
2023-02-18T02:19:31.224Z,100810.00
2023-02-18T02:22:56.194Z,100800.22
2023-02-18T02:26:53.923Z,100787.88
2023-02-18T02:29:56.864Z,100789.91
2023-02-18T02:33:22.117Z,100782.00
2023-02-18T02:36:42.386Z,100782.34
2023-02-18T02:40:15.835Z,100784.22
2023-02-18T02:44:09.219Z,100781.44
2023-02-18T02:47:33.067Z,100771.44
2023-02-18T02:50:45.169Z,100770.38
2023-02-18T02:53:47.239Z,100754.59
2023-02-18T02:56:49.988Z,100768.66
2023-02-18T03:00:02.367Z,100758.19
2023-02-18T03:03:12.359Z,100763.31
2023-02-18T03:07:02.544Z,100764.91
2023-02-18T03:10:35.432Z,100754.72
2023-02-18T03:14:14.346Z,100759.03
2023-02-18T03:17:30.206Z,100769.34
2023-02-18T03:20:40.075Z,100749.00
2023-02-18T03:23:58.967Z,100767.00
2023-02-18T03:27:09.943Z,100760.47
2023-02-18T03:30:21.758Z,100766.81
2023-02-18T03:33:30.255Z,100758.09
2023-02-18T03:36:35.612Z,100750.38
2023-02-18T03:39:41.982Z,100755.13
2023-02-18T03:42:45.614Z,100767.75
2023-02-18T03:45:47.638Z,100743.59
2023-02-18T03:48:50.272Z,100742.56
2023-02-18T03:51:52.421Z,100751.91
2023-02-18T03:54:54.492Z,100752.94
2023-02-18T03:57:56.629Z,100738.94
2023-02-18T04:00:58.688Z,100737.44
2023-02-18T04:04:00.811Z,100741.09
2023-02-18T04:07:03.001Z,100753.88
2023-02-18T04:10:06.487Z,100745.75
2023-02-18T04:13:08.577Z,100741.94
2023-02-18T04:16:10.648Z,100742.38
2023-02-18T04:19:12.635Z,100751.34
2023-02-18T04:22:15.993Z,100736.41
2023-02-18T04:25:18.137Z,100713.66
2023-02-18T04:28:20.134Z,100709.44
2023-02-18T04:31:22.570Z,100705.81
2023-02-18T04:34:24.763Z,100706.66
2023-02-18T04:37:26.825Z,100699.50
2023-02-18T04:40:30.830Z,100692.66
2023-02-18T04:43:32.909Z,100705.72
2023-02-18T04:46:35.981Z,100681.84
2023-02-18T04:49:38.154Z,100682.50
2023-02-18T04:52:40.327Z,100681.28
2023-02-18T04:55:42.448Z,100687.72
2023-02-18T04:58:44.496Z,100678.41
2023-02-18T05:01:46.838Z,100685.00
2023-02-18T05:04:49.005Z,100665.97
2023-02-18T05:07:51.040Z,100666.88
2023-02-18T05:10:53.000Z,100666.06
2023-02-18T05:13:54.955Z,100649.44
2023-02-18T05:16:58.412Z,100672.41
2023-02-18T05:20:00.709Z,100660.63
2023-02-18T05:23:02.879Z,100662.91
2023-02-18T05:26:05.321Z,100661.69
2023-02-18T05:29:07.570Z,100647.84
2023-02-18T05:32:09.860Z,100646.09
2023-02-18T05:35:12.102Z,100651.13
2023-02-18T05:38:14.203Z,100644.69
2023-02-18T05:41:16.461Z,100628.91
2023-02-18T05:44:30.598Z,100645.63
2023-02-18T05:47:32.676Z,100664.75
2023-02-18T05:50:34.899Z,100678.34
2023-02-18T05:53:36.975Z,100687.25
2023-02-18T05:56:39.046Z,100682.19
2023-02-18T05:59:41.417Z,100672.81
2023-02-18T06:02:43.660Z,100675.19
2023-02-18T06:05:45.832Z,100665.88
2023-02-18T06:08:47.888Z,100674.59
2023-02-18T06:11:50.086Z,100674.59
2023-02-18T06:14:52.114Z,100654.72
2023-02-18T06:17:54.262Z,100665.34
2023-02-18T06:20:56.323Z,100651.13
2023-02-18T06:23:58.535Z,100668.44
2023-02-18T06:27:00.746Z,100662.31
2023-02-18T06:30:03.050Z,100652.78
2023-02-18T06:33:05.472Z,100652.41
2023-02-18T06:36:11.871Z,100637.91
2023-02-18T06:39:14.055Z,100650.50
2023-02-18T06:42:16.160Z,100645.28
2023-02-18T06:45:18.402Z,100661.81
2023-02-18T06:48:20.521Z,100667.66
2023-02-18T06:51:22.536Z,100656.91
2023-02-18T06:54:25.527Z,100663.47
2023-02-18T06:57:27.529Z,100668.78
2023-02-18T07:00:31.039Z,100659.84
2023-02-18T07:03:33.531Z,100632.09
2023-02-18T07:06:35.776Z,100638.38
2023-02-18T07:09:38.099Z,100647.97
2023-02-18T07:12:40.106Z,100648.16
2023-02-18T07:15:42.125Z,100656.53
2023-02-18T07:18:46.534Z,100653.38
2023-02-18T07:21:48.565Z,100639.56
2023-02-18T07:24:54.028Z,100629.75
2023-02-18T07:27:56.126Z,100635.59
2023-02-18T07:30:58.239Z,100638.13
2023-02-18T07:34:00.666Z,100639.63
2023-02-18T07:37:02.942Z,100636.47
2023-02-18T07:40:07.878Z,100633.13
2023-02-18T07:43:09.933Z,100622.88
2023-02-18T07:46:15.287Z,100619.13
2023-02-18T07:49:17.511Z,100620.59
2023-02-18T07:52:19.540Z,100634.19
2023-02-18T07:55:21.933Z,100629.75
2023-02-18T07:58:28.592Z,100620.13
2023-02-18T08:01:31.156Z,100616.78
2023-02-18T08:04:34.033Z,100631.63
2023-02-18T08:07:36.132Z,100621.16
2023-02-18T08:10:38.169Z,100621.16
2023-02-18T08:13:40.207Z,100621.56
2023-02-18T08:16:42.319Z,100617.81
2023-02-18T08:19:44.340Z,100609.00
2023-02-18T08:22:46.389Z,100611.03
2023-02-18T08:25:51.806Z,100622.97
2023-02-18T08:28:54.181Z,100610.47
2023-02-18T08:31:58.321Z,100626.38
2023-02-18T08:35:01.202Z,100614.03
2023-02-18T08:38:03.174Z,100602.31
2023-02-18T08:41:09.821Z,100595.78
2023-02-18T08:44:12.033Z,100597.63
2023-02-18T08:48:16.690Z,100616.38
2023-02-18T08:50:36.751Z,100613.09
2023-02-18T08:53:39.138Z,100618.47
2023-02-18T08:56:41.848Z,100608.38
2023-02-18T08:59:44.036Z,100615.44
2023-02-18T09:02:47.617Z,100614.81
2023-02-18T09:05:49.807Z,100609.53
2023-02-18T09:08:51.883Z,100611.66
2023-02-18T09:11:53.951Z,100606.03
2023-02-18T09:14:56.042Z,100614.31
2023-02-18T09:17:59.906Z,100601.19
2023-02-18T09:21:02.404Z,100620.78
2023-02-18T09:24:04.638Z,100602.41
2023-02-18T09:27:07.587Z,100609.16
2023-02-18T09:30:10.836Z,100599.06
2023-02-18T09:33:13.183Z,100603.03
2023-02-18T09:36:15.603Z,100593.00
2023-02-18T09:39:18.924Z,100601.13
2023-02-18T09:42:28.292Z,100594.75
2023-02-18T09:45:30.557Z,100605.03
2023-02-18T09:48:36.315Z,100599.03
2023-02-18T09:51:38.380Z,100595.97
2023-02-18T09:54:41.078Z,100588.19
2023-02-18T09:57:50.304Z,100591.25
2023-02-18T10:01:26.036Z,100595.19
2023-02-18T10:04:40.996Z,100575.38
2023-02-18T10:07:46.038Z,100594.19
2023-02-18T10:10:48.292Z,100580.00
2023-02-18T10:13:50.939Z,100596.22
2023-02-18T10:16:54.158Z,100591.75
2023-02-18T10:19:58.509Z,100596.75
2023-02-18T10:23:05.465Z,100590.13
2023-02-18T10:26:15.078Z,100592.19
2023-02-18T10:29:22.137Z,100579.63
2023-02-18T10:32:47.061Z,100592.22
2023-02-18T10:36:04.430Z,100571.94
2023-02-18T10:39:21.610Z,100574.19
2023-02-18T10:43:04.134Z,100579.81
2023-02-18T10:46:24.227Z,100586.38
2023-02-18T10:49:52.990Z,100552.31
2023-02-18T10:52:59.610Z,100564.63
2023-02-18T10:56:02.243Z,100538.34
2023-02-18T10:59:21.440Z,100566.03
2023-02-18T11:02:24.838Z,100559.34
2023-02-18T11:05:29.828Z,100550.16
2023-02-18T11:08:42.795Z,100532.66
2023-02-18T11:11:50.625Z,100537.63
2023-02-18T11:15:24.710Z,100549.25
2023-02-18T11:18:31.918Z,100558.66
2023-02-18T11:21:38.570Z,100554.00
2023-02-18T11:24:40.748Z,100555.44
2023-02-18T11:27:46.391Z,100546.81
2023-02-18T11:30:54.289Z,100544.44
2023-02-18T11:34:01.189Z,100542.16
2023-02-18T11:37:32.611Z,100537.34
2023-02-18T11:40:36.737Z,100536.97
2023-02-18T11:43:43.092Z,100510.19
2023-02-18T11:47:05.528Z,100524.59
2023-02-18T11:50:10.429Z,100534.13
2023-02-18T11:53:38.513Z,100530.31
2023-02-18T11:56:40.583Z,100523.69
2023-02-18T11:59:43.066Z,100512.31
2023-02-18T12:02:45.356Z,100525.16
2023-02-18T12:05:48.239Z,100522.19
2023-02-18T12:08:56.202Z,100521.75
2023-02-18T12:12:07.178Z,100497.50
2023-02-18T12:15:14.176Z,100495.78
2023-02-18T12:18:19.954Z,100510.66
2023-02-18T12:21:58.495Z,100506.88
2023-02-18T12:25:06.099Z,100502.56
2023-02-18T12:28:25.588Z,100497.44
2023-02-18T12:32:05.703Z,100494.44
2023-02-18T12:35:13.441Z,100492.34
2023-02-18T12:38:39.630Z,100491.03
2023-02-18T12:42:09.972Z,100508.81
2023-02-18T12:45:27.445Z,100506.81
2023-02-18T12:48:29.503Z,100506.25
2023-02-18T12:51:46.767Z,100501.44
2023-02-18T12:55:09.336Z,100514.84
2023-02-18T12:58:35.676Z,100510.44
2023-02-18T13:02:23.294Z,100515.88
2023-02-18T13:05:38.357Z,100513.94
2023-02-18T13:08:55.783Z,100509.78
2023-02-18T13:12:06.727Z,100504.16
2023-02-18T13:15:17.563Z,100498.41
2023-02-18T13:18:30.623Z,100483.34
2023-02-18T13:21:34.028Z,100500.53
2023-02-18T13:24:38.633Z,100471.75
2023-02-18T13:28:15.852Z,100463.91
2023-02-18T13:31:49.680Z,100490.41
2023-02-18T13:35:04.929Z,100476.19
2023-02-18T13:38:27.343Z,100485.34
2023-02-18T13:41:29.669Z,100480.41
2023-02-18T13:45:16.746Z,100497.78
2023-02-18T13:48:27.037Z,100479.34
2023-02-18T13:51:30.908Z,100500.34
2023-02-18T13:54:37.392Z,100496.25
2023-02-18T13:57:39.590Z,100507.53
2023-02-18T14:00:50.054Z,100492.00
2023-02-18T14:03:57.032Z,100499.59
2023-02-18T14:07:26.912Z,100505.66
2023-02-18T14:10:34.919Z,100502.78
2023-02-18T14:13:41.055Z,100503.53
2023-02-18T14:17:22.702Z,100498.34
2023-02-18T14:20:29.146Z,100495.03
2023-02-18T14:23:37.493Z,100488.06
2023-02-18T14:26:46.026Z,100482.34
2023-02-18T14:29:52.285Z,100479.03
2023-02-18T14:32:59.631Z,100477.41
2023-02-18T14:36:29.944Z,100475.25
2023-02-18T14:39:49.777Z,100466.47
2023-02-18T14:43:23.101Z,100470.94
2023-02-18T14:47:01.989Z,100463.22
2023-02-18T14:50:10.950Z,100463.13
2023-02-18T14:53:18.753Z,100467.97
2023-02-18T14:56:22.233Z,100486.75
2023-02-18T14:59:29.176Z,100471.25
2023-02-18T15:02:38.869Z,100477.38
2023-02-18T15:05:41.114Z,100467.19
2023-02-18T15:08:43.143Z,100484.78
2023-02-18T15:11:53.080Z,100486.50
2023-02-18T15:14:59.973Z,100488.59
2023-02-18T15:18:04.984Z,100481.09
2023-02-18T15:21:28.317Z,100486.13
2023-02-18T15:24:39.389Z,100498.47
2023-02-18T15:27:47.129Z,100507.22
2023-02-18T15:30:49.526Z,100506.03
2023-02-18T15:33:52.836Z,100490.84
2023-02-18T15:36:55.946Z,100503.25
2023-02-18T15:39:58.606Z,100493.59
2023-02-18T15:43:04.186Z,100484.97
2023-02-18T15:46:14.369Z,100504.81
2023-02-18T15:49:23.316Z,100504.00
2023-02-18T15:52:31.906Z,100511.88
2023-02-18T15:55:38.737Z,100520.44
2023-02-18T15:58:40.858Z,100525.63
2023-02-18T16:01:42.889Z,100519.47
2023-02-18T16:04:51.377Z,100534.75
2023-02-18T16:07:57.377Z,100538.25
2023-02-18T16:11:07.679Z,100533.09
2023-02-18T16:14:31.811Z,100538.81
2023-02-18T16:17:33.993Z,100538.75
2023-02-18T16:20:38.101Z,100536.44
2023-02-18T16:23:45.665Z,100553.31
2023-02-18T16:26:47.707Z,100551.78
2023-02-18T16:29:51.999Z,100550.19
2023-02-18T16:32:54.969Z,100552.66
2023-02-18T16:35:57.912Z,100547.34
2023-02-18T16:39:02.212Z,100547.19
2023-02-18T16:42:10.485Z,100557.53
2023-02-18T16:45:13.386Z,100559.19
2023-02-18T16:48:24.564Z,100566.97
2023-02-18T16:51:31.847Z,100558.25
2023-02-18T16:54:36.470Z,100564.63
2023-02-18T16:57:39.912Z,100563.66
2023-02-18T17:00:43.637Z,100559.41
2023-02-18T17:03:47.871Z,100566.53
2023-02-18T17:06:51.146Z,100572.59
2023-02-18T17:09:59.788Z,100569.06
2023-02-18T17:13:01.771Z,100573.53
2023-02-18T17:16:03.896Z,100571.66
2023-02-18T17:19:06.298Z,100571.81
2023-02-18T17:22:10.258Z,100569.03
2023-02-18T17:25:20.606Z,100570.59
2023-02-18T17:28:23.344Z,100562.69
2023-02-18T17:31:29.046Z,100572.31
2023-02-18T17:34:32.795Z,100564.47
2023-02-18T17:37:34.809Z,100564.81
2023-02-18T17:40:36.858Z,100583.06
2023-02-18T17:43:39.329Z,100578.53
2023-02-18T17:46:44.876Z,100585.06
2023-02-18T17:49:47.139Z,100578.19
2023-02-18T17:52:49.323Z,100570.44
2023-02-18T17:55:51.896Z,100564.38
2023-02-18T17:58:53.889Z,100556.81
2023-02-18T18:01:56.027Z,100560.59
2023-02-18T18:04:58.132Z,100518.59
2023-02-18T18:08:01.772Z,100547.22
2023-02-18T18:11:06.048Z,100533.06
2023-02-18T18:14:11.784Z,100554.00
2023-02-18T18:17:14.610Z,100552.53
2023-02-18T18:20:17.774Z,100557.56
2023-02-18T18:23:21.830Z,100536.06
2023-02-18T18:26:30.758Z,100562.44
2023-02-18T18:29:33.678Z,100564.28
2023-02-18T18:32:36.887Z,100549.38
2023-02-18T18:35:38.939Z,100543.97
2023-02-18T18:42:12.542Z,100532.97
2023-02-18T18:45:22.718Z,100541.72
2023-02-18T18:48:27.143Z,100524.69
2023-02-18T18:51:32.720Z,100520.00
2023-02-18T18:54:37.199Z,100522.34
2023-02-18T18:57:39.248Z,100530.56
2023-02-18T19:00:43.930Z,100524.09
2023-02-18T19:03:47.406Z,100510.81
2023-02-18T19:06:51.933Z,100502.00
2023-02-18T19:09:53.920Z,100507.06
2023-02-18T19:13:05.118Z,100505.50
2023-02-18T19:16:17.269Z,100507.63
2023-02-18T19:19:21.133Z,100490.56
2023-02-18T19:22:23.607Z,100491.81
2023-02-18T19:25:27.512Z,100492.47
2023-02-18T19:28:29.669Z,100496.13
2023-02-18T19:31:31.780Z,100489.66
2023-02-18T19:34:36.993Z,100495.53
2023-02-18T19:37:39.370Z,100486.13
2023-02-18T19:40:42.336Z,100499.59
2023-02-18T19:43:46.995Z,100492.13
2023-02-18T19:46:49.126Z,100475.19
2023-02-18T19:49:53.152Z,100499.47
2023-02-18T19:52:56.302Z,100479.22
2023-02-18T19:56:07.354Z,100485.47
2023-02-18T19:59:09.376Z,100468.19
2023-02-18T20:02:23.264Z,100470.44
2023-02-18T20:05:25.624Z,100460.66
2023-02-18T20:08:27.778Z,100445.16
2023-02-18T20:11:32.739Z,100454.47
2023-02-18T20:14:37.415Z,100432.69
2023-02-18T20:17:39.651Z,100432.91
2023-02-18T20:20:49.120Z,100421.16
2023-02-18T20:23:54.890Z,100421.13
2023-02-18T20:26:58.056Z,100434.88
2023-02-18T20:30:01.080Z,100448.63
2023-02-18T20:33:04.624Z,100431.72
2023-02-18T20:36:08.707Z,100463.59
2023-02-18T20:39:16.269Z,100449.31
2023-02-18T20:42:18.848Z,100441.72
2023-02-18T20:45:26.178Z,100430.88
2023-02-18T20:48:28.280Z,100428.66
2023-02-18T20:51:30.358Z,100416.25
2023-02-18T20:54:32.582Z,100405.44
2023-02-18T20:57:35.707Z,100404.50
2023-02-18T21:00:37.867Z,100396.59
2023-02-18T21:03:41.003Z,100404.72
2023-02-18T21:06:45.641Z,100402.31
2023-02-18T21:09:55.427Z,100391.13
2023-02-18T21:12:57.463Z,100399.59
2023-02-18T21:16:02.832Z,100406.19
2023-02-18T21:19:07.465Z,100385.63
2023-02-18T21:22:09.452Z,100372.47
2023-02-18T21:25:14.114Z,100376.09
2023-02-18T21:28:16.139Z,100365.72
2023-02-18T21:31:22.631Z,100372.53
2023-02-18T21:34:26.114Z,100388.66
2023-02-18T21:37:28.426Z,100381.22
2023-02-18T21:40:31.307Z,100369.59
2023-02-18T21:43:33.505Z,100359.59
2023-02-18T21:46:37.399Z,100345.38
2023-02-18T21:49:39.563Z,100319.34
2023-02-18T21:52:43.035Z,100346.72
2023-02-18T21:55:55.317Z,100341.72
2023-02-18T21:59:04.467Z,100331.53
2023-02-18T22:02:12.803Z,100334.97
2023-02-18T22:05:14.902Z,100332.91
2023-02-18T22:08:18.760Z,100316.91
2023-02-18T22:11:20.837Z,100330.06
2023-02-18T22:14:23.130Z,100344.28
2023-02-18T22:17:25.263Z,100348.94
2023-02-18T22:20:27.442Z,100346.03
2023-02-18T22:23:31.463Z,100341.84
2023-02-18T22:26:34.220Z,100343.16
2023-02-18T22:29:36.177Z,100331.28
2023-02-18T22:32:39.254Z,100309.13
2023-02-18T22:35:41.295Z,100309.97
2023-02-18T22:38:43.583Z,100303.06
2023-02-18T22:41:45.725Z,100265.09
2023-02-18T22:44:47.779Z,100281.19
2023-02-18T22:47:49.789Z,100262.38
2023-02-18T22:50:51.872Z,100275.34
2023-02-18T22:53:56.356Z,100253.88
2023-02-18T22:56:58.416Z,100280.41
2023-02-18T23:00:00.396Z,100250.63
2023-02-18T23:03:02.496Z,100250.81
2023-02-18T23:06:06.124Z,100250.44
2023-02-18T23:09:11.569Z,100242.72
2023-02-18T23:12:13.629Z,100238.94
2023-02-18T23:15:16.962Z,100233.53
2023-02-18T23:18:18.993Z,100244.00
2023-02-18T23:21:21.348Z,100261.75
2023-02-18T23:24:23.527Z,100268.63
2023-02-18T23:27:26.120Z,100280.31
2023-02-18T23:30:28.228Z,100284.72
2023-02-18T23:33:30.297Z,100285.09
2023-02-18T23:36:34.656Z,100287.81
2023-02-18T23:39:37.577Z,100297.66
2023-02-18T23:42:39.633Z,100310.16
2023-02-18T23:45:44.013Z,100321.63
2023-02-18T23:48:46.225Z,100303.06
2023-02-18T23:51:49.505Z,100322.69
2023-02-18T23:54:51.520Z,100332.91
2023-02-18T23:57:53.487Z,100326.66
